Time;durP1;ratioP1;P1;durP2;ratioP2;P2;SDS_P1;SDS_P2;PMS_P1;PMS_P2;Temp;Humidity;BMP_temperature;BMP_pressure;BME280_temperature;BME280_humidity;BME280_pressure;Samples;Min_cycle;Max_cycle;Signal;HPM_P1;HPM_P2
2022/07/09 00:02:02;;;;;;;;;;;18.90;99.90;;;;;;5051547;28;19913;-71
2022/07/09 00:04:28;;;;;;;;;;;18.90;99.90;;;;;;5051670;28;19912;-70
2022/07/09 00:06:53;;;;;;;;;;;18.90;99.90;;;;;;5051599;28;19913;-71
2022/07/09 00:09:19;;;;;;;;;;;18.90;99.90;;;;;;5051918;28;19919;-71
2022/07/09 00:11:44;;;;;;;;;;;18.90;99.90;;;;;;5051421;28;19917;-71
2022/07/09 00:14:10;;;;;;;;;;;18.90;99.90;;;;;;5051267;28;19913;-71
2022/07/09 00:16:35;;;;;;;;;;;18.90;99.90;;;;;;5051963;28;20430;-70
2022/07/09 00:19:01;;;;;;;;;;;18.90;99.90;;;;;;5051348;28;20266;-71
2022/07/09 00:21:26;;;;;;;;;;;18.90;99.90;;;;;;5051895;28;19939;-71
2022/07/09 00:23:52;;;;;;;;;;;18.90;99.90;;;;;;5051173;28;19916;-71
2022/07/09 00:26:18;;;;;;;;;;;18.90;99.90;;;;;;5033370;28;20221;-71
2022/07/09 00:28:44;;;;;;;;;;;18.90;99.90;;;;;;5050900;28;19929;-71
2022/07/09 00:31:09;;;;;;;;;;;18.90;99.90;;;;;;5033242;28;19917;-70
2022/07/09 00:33:35;;;;;;;;;;;18.80;99.90;;;;;;5050917;28;19920;-71
2022/07/09 00:36:01;;;;;;;;;;;18.80;99.90;;;;;;5051322;28;20297;-71
2022/07/09 00:38:26;;;;;;;;;;;18.80;99.90;;;;;;5050810;28;20420;-71
2022/07/09 00:40:51;;;;;;;;;;;18.90;99.90;;;;;;5050963;28;19972;-71
2022/07/09 00:43:18;;;;;;;;;;;18.80;99.90;;;;;;5050359;28;20276;-71
2022/07/09 00:45:44;;;;;;;;;;;18.80;99.90;;;;;;5032903;28;19917;-71
2022/07/09 00:48:09;;;;;;;;;;;18.70;99.90;;;;;;5050783;28;20456;-70
2022/07/09 00:50:35;;;;;;;;;;;18.80;99.90;;;;;;5050864;28;19920;-71
2022/07/09 00:53:01;;;;;;;;;;;18.90;99.90;;;;;;5050547;28;20340;-71
2022/07/09 00:55:26;;;;;;;;;;;18.90;99.90;;;;;;5050825;28;19943;-71
2022/07/09 00:57:52;;;;;;;;;;;18.90;99.90;;;;;;5050643;28;19936;-70
2022/07/09 01:00:18;;;;;;;;;;;18.90;99.90;;;;;;5050747;28;20015;-71
2022/07/09 01:02:44;;;;;;;;;;;18.90;99.90;;;;;;5050567;28;19920;-71
2022/07/09 01:05:10;;;;;;;;;;;19.00;99.90;;;;;;5050543;28;19935;-71
2022/07/09 01:07:35;;;;;;;;;;;18.80;99.90;;;;;;5050325;28;19917;-71
2022/07/09 01:10:01;;;;;;;;;;;18.90;99.90;;;;;;5050353;28;19994;-71
2022/07/09 01:12:26;;;;;;;;;;;18.90;99.90;;;;;;5050298;28;20011;-71
2022/07/09 01:14:52;;;;;;;;;;;18.90;99.90;;;;;;5050494;28;19940;-71
2022/07/09 01:17:17;;;;;;;;;;;18.90;99.90;;;;;;5032541;28;20354;-71
2022/07/09 01:19:43;;;;;;;;;;;18.90;99.90;;;;;;5032510;28;19920;-71
2022/07/09 01:22:09;;;;;;;;;;;18.90;99.90;;;;;;5050389;28;20385;-71
2022/07/09 01:24:34;;;;;;;;;;;18.90;99.90;;;;;;5050171;28;19912;-71
2022/07/09 01:27:00;;;;;;;;;;;18.90;99.90;;;;;;5032198;28;20325;-70
2022/07/09 01:29:26;;;;;;;;;;;18.90;99.90;;;;;;5050053;28;19917;-71
2022/07/09 01:31:52;;;;;;;;;;;18.90;99.90;;;;;;5050234;28;19921;-71
2022/07/09 01:34:17;;;;;;;;;;;19.00;99.90;;;;;;5056400;28;20348;-71
2022/07/09 01:36:44;;;;;;;;;;;19.00;99.90;;;;;;5052320;28;19966;-71
2022/07/09 01:39:09;;;;;;;;;;;19.10;99.90;;;;;;5069812;28;19985;-71
2022/07/09 01:41:35;;;;;;;;;;;19.10;99.90;;;;;;5070706;28;20545;-71
2022/07/09 01:44:00;;;;;;;;;;;19.10;99.90;;;;;;5070122;28;19966;-70
2022/07/09 01:46:26;;;;;;;;;;;19.10;99.90;;;;;;5070653;28;19966;-70
2022/07/09 01:48:51;;;;;;;;;;;19.10;99.90;;;;;;5070005;28;20455;-71
2022/07/09 01:51:16;;;;;;;;;;;19.20;99.90;;;;;;5069997;28;19917;-71
2022/07/09 01:53:42;;;;;;;;;;;19.20;99.90;;;;;;5070178;28;19917;-71
2022/07/09 01:56:08;;;;;;;;;;;19.20;99.90;;;;;;5071765;28;19947;-70
2022/07/09 01:58:34;;;;;;;;;;;19.20;99.90;;;;;;5056004;28;20349;-71
2022/07/09 02:01:00;;;;;;;;;;;19.20;99.90;;;;;;5074243;28;19960;-71
2022/07/09 02:03:25;;;;;;;;;;;19.20;99.90;;;;;;5055859;28;20592;-70
2022/07/09 02:05:51;;;;;;;;;;;19.20;99.90;;;;;;5074118;28;20008;-71
2022/07/09 02:08:16;;;;;;;;;;;19.20;99.90;;;;;;5073842;28;19988;-71
2022/07/09 02:10:42;;;;;;;;;;;19.20;99.90;;;;;;5074156;28;19915;-71
2022/07/09 02:13:07;;;;;;;;;;;19.20;99.90;;;;;;5073625;28;19998;-71
2022/07/09 02:15:33;;;;;;;;;;;19.20;99.90;;;;;;5073683;28;20003;-71
2022/07/09 02:17:58;;;;;;;;;;;19.20;99.90;;;;;;5073925;28;20271;-71
2022/07/09 02:20:24;;;;;;;;;;;19.20;99.90;;;;;;5055357;28;19908;-71
2022/07/09 02:22:50;;;;;;;;;;;19.20;99.90;;;;;;5055417;28;19916;-71
2022/07/09 02:25:15;;;;;;;;;;;19.20;99.90;;;;;;5055312;28;20290;-70
2022/07/09 02:27:41;;;;;;;;;;;19.20;99.90;;;;;;5073562;28;20014;-71
2022/07/09 02:30:07;;;;;;;;;;;19.30;99.90;;;;;;5073245;28;20403;-71
2022/07/09 02:32:32;;;;;;;;;;;19.30;99.90;;;;;;5055154;28;20023;-71
2022/07/09 02:34:58;;;;;;;;;;;19.30;99.90;;;;;;5073385;28;20177;-71
2022/07/09 02:37:23;;;;;;;;;;;19.30;99.90;;;;;;5073630;28;19916;-71
2022/07/09 02:39:49;;;;;;;;;;;19.30;99.90;;;;;;5073139;28;19925;-71
2022/07/09 02:42:14;;;;;;;;;;;19.40;99.90;;;;;;5073261;28;19931;-71
2022/07/09 02:44:43;;;;;;;;;;;19.50;99.90;;;;;;5055066;28;19963;-70
2022/07/09 02:47:08;;;;;;;;;;;19.50;99.90;;;;;;5073089;28;19913;-71
2022/07/09 02:49:34;;;;;;;;;;;19.50;99.90;;;;;;5072898;28;20307;-71
2022/07/09 02:52:01;;;;;;;;;;;19.50;99.90;;;;;;5072973;28;19947;-70
2022/07/09 02:54:27;;;;;;;;;;;19.50;99.90;;;;;;5054822;28;20222;-71
2022/07/09 02:56:52;;;;;;;;;;;19.50;99.90;;;;;;5072621;28;19974;-71
2022/07/09 02:59:18;;;;;;;;;;;19.40;99.90;;;;;;5072770;28;19909;-71
2022/07/09 03:01:44;;;;;;;;;;;19.40;99.90;;;;;;5073088;28;20388;-71
2022/07/09 03:04:09;;;;;;;;;;;19.40;99.90;;;;;;5072784;28;19950;-71
2022/07/09 03:06:35;;;;;;;;;;;19.30;99.90;;;;;;5072128;28;19916;-70
2022/07/09 03:09:00;;;;;;;;;;;19.30;99.90;;;;;;5072644;28;19913;-71
2022/07/09 03:11:26;;;;;;;;;;;19.20;99.90;;;;;;5072753;28;20023;-71
2022/07/09 03:13:51;;;;;;;;;;;19.20;99.90;;;;;;5072516;28;19948;-71
2022/07/09 03:16:17;;;;;;;;;;;19.20;99.90;;;;;;5054601;28;20003;-71
2022/07/09 03:18:42;;;;;;;;;;;19.20;99.90;;;;;;5072711;28;19939;-71
2022/07/09 03:21:11;;;;;;;;;;;19.20;99.90;;;;;;5072630;28;19913;-70
2022/07/09 03:23:37;;;;;;;;;;;19.20;99.90;;;;;;5072622;28;19919;-71
2022/07/09 03:26:06;;;;;;;;;;;19.20;99.90;;;;;;5072410;28;19916;-71
2022/07/09 03:28:31;;;;;;;;;;;19.20;99.90;;;;;;5072256;28;19920;-71
2022/07/09 03:30:57;;;;;;;;;;;19.20;99.90;;;;;;5072032;28;19919;-71
2022/07/09 03:33:22;;;;;;;;;;;19.20;99.90;;;;;;5072087;28;19927;-71
2022/07/09 03:35:48;;;;;;;;;;;19.20;99.90;;;;;;5054168;28;20437;-70
2022/07/09 03:38:13;;;;;;;;;;;19.10;99.90;;;;;;5072313;28;19913;-70
2022/07/09 03:40:39;;;;;;;;;;;19.10;99.90;;;;;;5054016;28;19927;-70
2022/07/09 03:43:04;;;;;;;;;;;19.10;99.90;;;;;;5071991;28;20003;-71
2022/07/09 03:45:30;;;;;;;;;;;19.10;99.90;;;;;;5072229;28;19938;-71
2022/07/09 03:47:55;;;;;;;;;;;19.10;99.90;;;;;;5072073;28;19916;-70
2022/07/09 03:50:21;;;;;;;;;;;19.00;99.90;;;;;;5072196;28;19912;-70
2022/07/09 03:52:46;;;;;;;;;;;19.00;99.90;;;;;;5071630;28;20383;-71
2022/07/09 03:55:12;;;;;;;;;;;19.00;99.90;;;;;;5071972;28;20309;-71
2022/07/09 03:57:37;;;;;;;;;;;19.00;99.90;;;;;;5071656;28;20193;-70
2022/07/09 04:00:04;;;;;;;;;;;18.90;99.90;;;;;;5053937;28;20463;-71
2022/07/09 04:02:30;;;;;;;;;;;18.90;99.90;;;;;;5071679;28;20423;-71
2022/07/09 04:04:56;;;;;;;;;;;19.00;99.90;;;;;;5071725;28;20005;-71
2022/07/09 04:07:22;;;;;;;;;;;18.90;99.90;;;;;;5071728;28;19974;-70
2022/07/09 04:09:48;;;;;;;;;;;19.00;99.90;;;;;;5071642;28;19919;-71
2022/07/09 04:12:13;;;;;;;;;;;19.00;99.90;;;;;;5071376;28;20323;-71
2022/07/09 04:14:39;;;;;;;;;;;19.00;99.90;;;;;;5071260;28;19934;-71
2022/07/09 04:17:05;;;;;;;;;;;19.10;99.90;;;;;;5071614;28;20007;-71
2022/07/09 04:19:31;;;;;;;;;;;18.60;99.90;;;;;;5070567;28;19908;-71
2022/07/09 04:21:57;;;;;;;;;;;19.10;99.90;;;;;;5070987;28;19913;-71
2022/07/09 04:24:22;;;;;;;;;;;19.10;99.90;;;;;;5071022;28;19931;-71
2022/07/09 04:26:48;;;;;;;;;;;19.10;99.90;;;;;;5070929;28;20031;-71
2022/07/09 04:29:13;;;;;;;;;;;19.10;99.90;;;;;;5052936;28;19912;-71
2022/07/09 04:31:39;;;;;;;;;;;19.10;99.90;;;;;;5052701;28;20494;-71
2022/07/09 04:34:04;;;;;;;;;;;19.20;99.90;;;;;;5070956;28;20280;-71
2022/07/09 04:36:31;;;;;;;;;;;19.20;99.90;;;;;;5071124;28;19983;-71
2022/07/09 04:38:56;;;;;;;;;;;19.20;99.90;;;;;;5052763;28;19927;-71
2022/07/09 04:41:22;;;;;;;;;;;19.10;99.90;;;;;;5071149;28;19916;-71
2022/07/09 04:43:47;;;;;;;;;;;19.10;99.90;;;;;;5070800;28;20007;-72
2022/07/09 04:46:13;;;;;;;;;;;19.20;99.90;;;;;;5071081;28;19908;-72
2022/07/09 04:48:39;;;;;;;;;;;19.20;99.90;;;;;;5070678;28;19916;-71
2022/07/09 04:51:05;;;;;;;;;;;19.20;99.90;;;;;;5052735;28;20409;-71
2022/07/09 04:53:30;;;;;;;;;;;19.20;99.90;;;;;;5070524;28;19963;-71
2022/07/09 04:55:56;;;;;;;;;;;19.20;99.90;;;;;;5071027;28;20411;-71
2022/07/09 04:58:22;;;;;;;;;;;19.20;99.90;;;;;;5070495;28;20283;-70
2022/07/09 05:00:47;;;;;;;;;;;19.30;99.90;;;;;;5070924;28;20375;-71
2022/07/09 05:03:13;;;;;;;;;;;19.30;99.90;;;;;;5070396;28;19916;-71
2022/07/09 05:05:38;;;;;;;;;;;19.30;99.90;;;;;;5052553;28;20276;-71
2022/07/09 05:08:04;;;;;;;;;;;19.30;99.90;;;;;;5070906;28;19946;-70
2022/07/09 05:10:29;;;;;;;;;;;19.30;99.90;;;;;;5036221;28;20366;-71
2022/07/09 05:12:55;;;;;;;;;;;19.40;99.90;;;;;;5070333;28;20404;-71
2022/07/09 05:15:20;;;;;;;;;;;19.30;99.90;;;;;;5070579;28;19908;-71
2022/07/09 05:17:46;;;;;;;;;;;19.30;99.90;;;;;;5070350;28;19920;-71
2022/07/09 05:20:11;;;;;;;;;;;19.40;99.90;;;;;;5070493;28;20357;-71
2022/07/09 05:22:38;;;;;;;;;;;19.40;99.90;;;;;;5070338;28;19916;-71
2022/07/09 05:25:04;;;;;;;;;;;19.40;99.90;;;;;;5070547;28;19909;-71
2022/07/09 05:27:29;;;;;;;;;;;19.30;99.90;;;;;;5070254;28;19929;-71
2022/07/09 05:29:55;;;;;;;;;;;19.30;99.90;;;;;;5052088;28;19912;-71
2022/07/09 05:32:20;;;;;;;;;;;19.30;99.90;;;;;;5070291;28;20022;-71
2022/07/09 05:34:46;;;;;;;;;;;19.40;99.90;;;;;;5070295;28;19908;-71
2022/07/09 05:37:12;;;;;;;;;;;19.30;99.90;;;;;;5070260;28;19917;-72
2022/07/09 05:39:37;;;;;;;;;;;19.20;99.90;;;;;;5051821;28;19916;-71
2022/07/09 05:42:03;;;;;;;;;;;19.20;99.90;;;;;;5052168;28;20402;-71
2022/07/09 05:44:28;;;;;;;;;;;19.20;99.90;;;;;;5069900;28;20334;-71
2022/07/09 05:46:54;;;;;;;;;;;19.20;99.90;;;;;;5070112;28;20036;-71
2022/07/09 05:49:19;;;;;;;;;;;19.10;99.90;;;;;;5051946;28;19955;-71
2022/07/09 05:51:45;;;;;;;;;;;19.00;99.90;;;;;;5070365;28;19913;-71
2022/07/09 05:54:10;;;;;;;;;;;19.00;99.90;;;;;;5070297;28;19924;-71
2022/07/09 05:56:36;;;;;;;;;;;18.90;99.90;;;;;;5051803;28;20431;-71
2022/07/09 05:59:04;;;;;;;;;;;18.80;99.90;;;;;;5070124;28;20402;-71
2022/07/09 06:01:30;;;;;;;;;;;18.70;99.90;;;;;;5070457;28;19912;-71
2022/07/09 06:03:56;;;;;;;;;;;18.70;99.90;;;;;;5069766;28;20006;-70
2022/07/09 06:06:21;;;;;;;;;;;18.60;99.90;;;;;;5070551;28;19923;-70
2022/07/09 06:08:47;;;;;;;;;;;18.50;99.90;;;;;;5069935;28;19916;-71
2022/07/09 06:11:13;;;;;;;;;;;18.40;99.90;;;;;;5051839;28;19919;-70
2022/07/09 06:13:38;;;;;;;;;;;18.30;99.90;;;;;;5051767;28;19917;-71
2022/07/09 06:16:04;;;;;;;;;;;18.30;99.90;;;;;;5070175;28;19986;-72
2022/07/09 06:18:30;;;;;;;;;;;18.20;99.90;;;;;;5069641;28;20380;-72
2022/07/09 06:20:55;;;;;;;;;;;18.20;99.90;;;;;;5070081;28;19999;-72
2022/07/09 06:23:21;;;;;;;;;;;18.10;99.90;;;;;;5069696;28;19916;-72
2022/07/09 06:25:47;;;;;;;;;;;18.20;99.90;;;;;;5069658;28;19913;-72
2022/07/09 06:28:12;;;;;;;;;;;18.00;99.90;;;;;;5069648;28;19916;-72
2022/07/09 06:30:38;;;;;;;;;;;18.00;99.90;;;;;;5069748;28;19909;-72
2022/07/09 06:33:03;;;;;;;;;;;17.90;99.90;;;;;;5051284;28;19977;-72
2022/07/09 06:35:29;;;;;;;;;;;18.00;99.90;;;;;;5069783;28;20119;-72
2022/07/09 06:37:54;;;;;;;;;;;18.00;99.90;;;;;;5069653;28;19916;-72
2022/07/09 06:40:20;;;;;;;;;;;18.00;99.90;;;;;;5069544;28;20057;-72
2022/07/09 06:42:45;;;;;;;;;;;18.00;99.90;;;;;;5071527;28;20007;-73
2022/07/09 06:45:11;;;;;;;;;;;18.00;99.90;;;;;;5073149;28;20419;-73
2022/07/09 06:47:36;;;;;;;;;;;18.00;99.90;;;;;;5055207;28;19920;-73
2022/07/09 06:50:02;;;;;;;;;;;18.00;99.90;;;;;;5054913;28;19920;-73
2022/07/09 06:52:27;;;;;;;;;;;18.00;99.90;;;;;;5072991;28;19980;-73
2022/07/09 06:54:53;;;;;;;;;;;18.00;99.90;;;;;;5072858;28;20306;-73
2022/07/09 06:57:18;;;;;;;;;;;18.00;99.90;;;;;;5072823;28;19999;-73
2022/07/09 06:59:47;;;;;;;;;;;18.00;99.90;;;;;;5073043;28;20422;-73
2022/07/09 07:02:15;;;;;;;;;;;17.90;99.90;;;;;;5072871;28;20376;-73
2022/07/09 07:04:41;;;;;;;;;;;17.90;99.90;;;;;;5072674;28;20412;-73
2022/07/09 07:07:06;;;;;;;;;;;18.00;99.90;;;;;;5072777;28;20007;-73
2022/07/09 07:09:31;;;;;;;;;;;17.90;99.90;;;;;;5072724;28;19908;-73
2022/07/09 07:11:57;;;;;;;;;;;17.90;99.90;;;;;;5073005;28;19917;-73
2022/07/09 07:14:22;;;;;;;;;;;18.00;99.90;;;;;;5072640;28;19916;-73
2022/07/09 07:16:48;;;;;;;;;;;18.00;99.90;;;;;;5072582;28;20427;-73
2022/07/09 07:19:14;;;;;;;;;;;18.00;99.90;;;;;;5072738;28;19916;-73
2022/07/09 07:21:39;;;;;;;;;;;18.00;99.90;;;;;;5072852;28;19975;-73
2022/07/09 07:24:05;;;;;;;;;;;18.10;99.90;;;;;;5072407;28;19912;-73
2022/07/09 07:26:31;;;;;;;;;;;18.00;99.90;;;;;;5072779;28;19919;-72
2022/07/09 07:28:57;;;;;;;;;;;18.00;99.90;;;;;;5072379;28;19921;-72
2022/07/09 07:31:23;;;;;;;;;;;18.00;99.90;;;;;;5072625;28;19923;-72
2022/07/09 07:33:49;;;;;;;;;;;18.00;99.90;;;;;;5072100;28;20283;-73
2022/07/09 07:36:14;;;;;;;;;;;17.90;99.90;;;;;;5072005;28;20332;-73
2022/07/09 07:38:40;;;;;;;;;;;17.90;99.90;;;;;;5072333;28;19919;-72
2022/07/09 07:41:05;;;;;;;;;;;17.90;99.90;;;;;;5050571;28;20332;-73
2022/07/09 07:43:31;;;;;;;;;;;17.70;99.90;;;;;;5051955;28;19999;-73
2022/07/09 07:45:57;;;;;;;;;;;17.80;99.90;;;;;;5051930;28;19923;-73
2022/07/09 07:48:22;;;;;;;;;;;17.80;99.90;;;;;;5051993;28;20388;-73
2022/07/09 07:50:48;;;;;;;;;;;17.80;99.90;;;;;;5052157;28;19917;-72
2022/07/09 07:53:13;;;;;;;;;;;17.80;99.90;;;;;;5049384;28;19924;-72
2022/07/09 07:55:39;;;;;;;;;;;17.80;99.90;;;;;;5051542;28;20011;-73
2022/07/09 07:58:05;;;;;;;;;;;17.80;99.90;;;;;;5051662;28;20354;-71
2022/07/09 08:00:31;;;;;;;;;;;17.80;99.90;;;;;;5051698;28;19913;-72
2022/07/09 08:02:56;;;;;;;;;;;17.80;99.90;;;;;;5050090;28;20003;-72
2022/07/09 08:05:22;;;;;;;;;;;17.80;99.90;;;;;;5050146;28;19921;-72
2022/07/09 08:07:47;;;;;;;;;;;17.80;99.90;;;;;;5051420;28;19928;-72
2022/07/09 08:10:13;;;;;;;;;;;17.90;99.90;;;;;;5051333;28;19913;-72
2022/07/09 08:12:38;;;;;;;;;;;17.90;99.90;;;;;;5051202;28;19982;-72
2022/07/09 08:15:04;;;;;;;;;;;17.90;99.90;;;;;;5051162;28;20249;-72
2022/07/09 08:17:29;;;;;;;;;;;17.90;99.90;;;;;;5051152;28;19923;-72
2022/07/09 08:19:55;;;;;;;;;;;17.90;99.90;;;;;;5051064;28;19916;-72
2022/07/09 08:22:21;;;;;;;;;;;17.90;99.90;;;;;;5051272;28;19917;-72
2022/07/09 08:24:46;;;;;;;;;;;17.90;99.90;;;;;;5050932;28;19913;-72
2022/07/09 08:27:12;;;;;;;;;;;17.90;99.90;;;;;;5049623;28;19917;-72
2022/07/09 08:29:37;;;;;;;;;;;17.90;99.90;;;;;;5050855;28;20276;-72
2022/07/09 08:32:04;;;;;;;;;;;17.90;99.90;;;;;;5050685;28;19921;-72
2022/07/09 08:34:29;;;;;;;;;;;17.90;99.90;;;;;;5050744;28;19915;-72
2022/07/09 08:36:55;;;;;;;;;;;17.90;99.90;;;;;;5050858;28;19912;-73
2022/07/09 08:39:20;;;;;;;;;;;18.00;99.90;;;;;;5051818;28;19913;-72
2022/07/09 08:41:47;;;;;;;;;;;17.90;99.90;;;;;;5071115;28;20337;-73
2022/07/09 08:44:12;;;;;;;;;;;18.10;99.90;;;;;;5070582;28;19959;-73
2022/07/09 08:46:38;;;;;;;;;;;18.10;99.90;;;;;;5071203;28;19950;-73
2022/07/09 08:49:05;;;;;;;;;;;18.10;99.90;;;;;;5052522;28;20324;-73
2022/07/09 08:51:31;;;;;;;;;;;18.10;99.90;;;;;;5070523;28;19920;-72
2022/07/09 08:53:57;;;;;;;;;;;18.10;99.90;;;;;;5052304;28;19916;-72
2022/07/09 08:56:23;;;;;;;;;;;18.10;99.90;;;;;;5070723;28;19912;-73
2022/07/09 08:58:48;;;;;;;;;;;18.10;99.90;;;;;;5071008;28;19913;-73
2022/07/09 09:01:15;;;;;;;;;;;18.10;99.90;;;;;;5070741;28;20361;-73
2022/07/09 09:03:41;;;;;;;;;;;18.20;99.90;;;;;;5052557;28;20019;-72
2022/07/09 09:06:08;;;;;;;;;;;18.20;99.90;;;;;;5070364;28;19923;-72
2022/07/09 09:08:35;;;;;;;;;;;18.30;99.90;;;;;;5070824;28;19916;-72
2022/07/09 09:11:01;;;;;;;;;;;18.30;99.90;;;;;;5070683;28;19912;-72
2022/07/09 09:13:26;;;;;;;;;;;18.40;99.90;;;;;;5052276;28;19931;-72
2022/07/09 09:16:08;;;;;;;;;;;18.40;99.90;;;;;;5070263;28;19916;-73
2022/07/09 09:18:34;;;;;;;;;;;18.40;99.90;;;;;;5070648;28;20379;-72
2022/07/09 09:21:06;;;;;;;;;;;18.40;99.90;;;;;;5070559;28;20340;-73
2022/07/09 09:23:59;;;;;;;;;;;18.40;99.90;;;;;;5070408;28;19957;-73
2022/07/09 09:26:26;;;;;;;;;;;18.40;99.90;;;;;;5049572;28;19942;-72
2022/07/09 09:28:52;;;;;;;;;;;18.40;99.90;;;;;;5070347;28;19919;-73
2022/07/09 09:31:28;;;;;;;;;;;18.40;99.90;;;;;;5052250;28;19916;-72
2022/07/09 09:33:55;;;;;;;;;;;18.50;99.90;;;;;;5070291;28;20372;-73
2022/07/09 09:36:26;;;;;;;;;;;18.50;99.90;;;;;;5070305;28;19919;-73
2022/07/09 09:38:51;;;;;;;;;;;18.50;99.90;;;;;;5070161;28;19913;-72
2022/07/09 09:41:24;;;;;;;;;;;18.50;99.90;;;;;;5070356;28;19931;-73
2022/07/09 09:43:51;;;;;;;;;;;18.50;99.90;;;;;;5070037;28;19999;-73
2022/07/09 09:46:17;;;;;;;;;;;18.60;99.90;;;;;;5051725;28;20395;-72
2022/07/09 09:48:43;;;;;;;;;;;18.50;99.90;;;;;;5069953;28;20376;-72
2022/07/09 09:51:10;;;;;;;;;;;18.50;99.90;;;;;;5070266;28;19923;-73
2022/07/09 09:53:38;;;;;;;;;;;18.50;99.90;;;;;;5069841;28;19920;-72
2022/07/09 09:56:04;;;;;;;;;;;18.60;99.90;;;;;;5070062;28;20300;-72
2022/07/09 09:58:30;;;;;;;;;;;18.50;99.90;;;;;;5069628;28;19916;-72
2022/07/09 10:00:56;;;;;;;;;;;18.50;99.90;;;;;;5051985;28;19917;-72
2022/07/09 10:03:21;;;;;;;;;;;18.50;99.90;;;;;;5069634;28;20276;-73
2022/07/09 10:05:47;;;;;;;;;;;18.50;99.90;;;;;;5070182;28;19916;-73
2022/07/09 10:08:13;;;;;;;;;;;18.50;99.90;;;;;;5069806;28;19912;-73
2022/07/09 10:10:49;;;;;;;;;;;18.60;99.90;;;;;;5069953;28;19962;-72
2022/07/09 10:13:21;;;;;;;;;;;18.50;99.90;;;;;;5069781;28;19962;-72
2022/07/09 10:15:50;;;;;;;;;;;18.60;99.90;;;;;;5070258;28;19916;-72
2022/07/09 10:18:19;;;;;;;;;;;18.60;99.90;;;;;;5072617;28;19985;-72
2022/07/09 10:20:44;;;;;;;;;;;18.50;99.90;;;;;;5073829;28;19920;-72
2022/07/09 10:23:22;;;;;;;;;;;18.60;99.90;;;;;;5073346;28;20300;-73
2022/07/09 10:25:52;;;;;;;;;;;18.50;99.90;;;;;;5073658;28;19928;-72
2022/07/09 10:28:19;;;;;;;;;;;18.60;99.90;;;;;;5073286;28;20023;-72
2022/07/09 10:30:45;;;;;;;;;;;18.50;99.90;;;;;;5073632;28;19955;-72
2022/07/09 10:33:11;;;;;;;;;;;18.60;99.90;;;;;;5073459;28;19960;-72
2022/07/09 10:35:40;;;;;;;;;;;18.50;99.90;;;;;;5073525;28;19924;-72
2022/07/09 10:38:06;;;;;;;;;;;18.60;99.90;;;;;;5055284;28;19967;-72
2022/07/09 10:40:42;;;;;;;;;;;18.50;99.90;;;;;;5073148;28;19971;-72
2022/07/09 10:43:08;;;;;;;;;;;18.60;99.90;;;;;;5073074;28;19916;-72
2022/07/09 10:45:37;;;;;;;;;;;18.60;99.90;;;;;;5054757;28;20442;-72
2022/07/09 10:48:04;;;;;;;;;;;18.60;99.90;;;;;;5073050;28;19967;-72
2022/07/09 10:50:30;;;;;;;;;;;18.60;99.90;;;;;;5073030;28;20011;-71
2022/07/09 10:52:55;;;;;;;;;;;18.60;99.90;;;;;;5054644;28;19918;-72
2022/07/09 10:55:27;;;;;;;;;;;18.60;99.90;;;;;;5072703;28;20015;-72
2022/07/09 10:57:53;;;;;;;;;;;18.60;99.90;;;;;;5072708;28;19919;-72
2022/07/09 11:00:20;;;;;;;;;;;18.60;99.90;;;;;;5072955;28;20244;-72
2022/07/09 11:02:55;;;;;;;;;;;18.50;99.90;;;;;;5072403;28;19908;-72
2022/07/09 11:05:21;;;;;;;;;;;18.60;99.90;;;;;;5072766;28;19928;-72
2022/07/09 11:08:06;;;;;;;;;;;18.60;99.90;;;;;;5072532;28;20344;-72
2022/07/09 11:10:34;;;;;;;;;;;18.70;99.90;;;;;;5072785;28;19916;-72
2022/07/09 11:13:00;;;;;;;;;;;18.80;99.90;;;;;;5072499;28;20363;-73
2022/07/09 11:15:27;;;;;;;;;;;18.80;99.90;;;;;;5072701;28;20276;-71
2022/07/09 11:18:03;;;;;;;;;;;18.80;99.90;;;;;;5072421;28;19913;-72
2022/07/09 11:20:30;;;;;;;;;;;18.80;99.90;;;;;;5072823;28;19923;-72
2022/07/09 11:23:00;;;;;;;;;;;18.70;99.90;;;;;;5072355;28;19912;-72
2022/07/09 11:25:28;;;;;;;;;;;18.80;99.90;;;;;;5072270;28;20283;-72
2022/07/09 11:27:57;;;;;;;;;;;18.80;99.90;;;;;;5072045;28;19908;-72
2022/07/09 11:30:23;;;;;;;;;;;18.80;99.90;;;;;;5072618;28;19994;-72
2022/07/09 11:32:49;;;;;;;;;;;18.80;99.90;;;;;;5054188;28;19917;-72
2022/07/09 11:35:25;;;;;;;;;;;18.80;99.90;;;;;;5072480;28;19917;-72
2022/07/09 11:37:51;;;;;;;;;;;18.90;99.90;;;;;;5072420;28;19913;-72
2022/07/09 11:40:20;;;;;;;;;;;18.90;99.90;;;;;;5072093;28;19939;-72
2022/07/09 11:42:46;;;;;;;;;;;18.90;99.90;;;;;;5072142;28;19912;-72
2022/07/09 11:45:11;;;;;;;;;;;18.90;99.90;;;;;;5072244;28;19939;-72
2022/07/09 11:47:38;;;;;;;;;;;18.90;99.90;;;;;;5071908;28;19940;-73
2022/07/09 11:50:15;;;;;;;;;;;18.90;99.90;;;;;;5071998;28;19913;-73
2022/07/09 11:52:48;;;;;;;;;;;18.90;99.90;;;;;;5071977;28;19916;-73
2022/07/09 11:55:19;;;;;;;;;;;18.90;99.90;;;;;;5053819;28;19947;-73
2022/07/09 11:57:55;;;;;;;;;;;18.90;99.90;;;;;;5071752;28;19917;-73
2022/07/09 12:00:25;;;;;;;;;;;18.80;99.90;;;;;;5053795;28;19912;-73
2022/07/09 12:02:51;;;;;;;;;;;18.80;99.90;;;;;;5071614;28;19998;-73
2022/07/09 12:05:37;;;;;;;;;;;18.80;99.90;;;;;;5071506;28;20004;-73
2022/07/09 12:08:05;;;;;;;;;;;18.80;99.90;;;;;;5071545;28;19988;-73
2022/07/09 12:10:32;;;;;;;;;;;18.80;99.90;;;;;;5071887;28;20011;-73
2022/07/09 12:12:58;;;;;;;;;;;18.80;99.90;;;;;;5071578;28;19969;-73
2022/07/09 12:15:24;;;;;;;;;;;18.80;99.90;;;;;;5071808;28;19958;-73
2022/07/09 12:17:57;;;;;;;;;;;18.80;99.90;;;;;;5071437;28;19917;-73
2022/07/09 12:20:23;;;;;;;;;;;18.80;99.90;;;;;;5071503;28;19912;-73
2022/07/09 12:22:49;;;;;;;;;;;18.80;99.90;;;;;;5071663;28;19920;-73
2022/07/09 12:25:15;;;;;;;;;;;18.80;99.90;;;;;;5071186;28;20300;-72
2022/07/09 12:27:41;;;;;;;;;;;18.80;99.90;;;;;;5071486;28;20404;-72
2022/07/09 12:30:07;;;;;;;;;;;18.70;99.90;;;;;;5071677;28;19948;-73
2022/07/09 12:32:33;;;;;;;;;;;18.70;99.90;;;;;;5053271;28;19922;-72
2022/07/09 12:34:58;;;;;;;;;;;18.70;99.90;;;;;;5071125;28;20003;-73
2022/07/09 12:37:24;;;;;;;;;;;18.70;99.90;;;;;;5071066;28;20387;-73
2022/07/09 12:39:49;;;;;;;;;;;18.80;99.90;;;;;;5070321;28;20419;-73
2022/07/09 12:42:15;;;;;;;;;;;18.80;99.90;;;;;;5071049;28;20318;-73
2022/07/09 12:44:40;;;;;;;;;;;18.80;99.90;;;;;;5070770;28;19915;-73
2022/07/09 12:47:06;;;;;;;;;;;18.80;99.90;;;;;;5071009;28;19923;-73
2022/07/09 12:49:31;;;;;;;;;;;18.80;99.90;;;;;;5070831;28;19916;-73
2022/07/09 12:51:57;;;;;;;;;;;18.70;99.90;;;;;;5070676;28;20036;-73
2022/07/09 12:54:23;;;;;;;;;;;18.80;99.90;;;;;;5070432;28;20363;-73
2022/07/09 12:56:50;;;;;;;;;;;18.80;99.90;;;;;;5052659;28;19958;-73
2022/07/09 12:59:18;;;;;;;;;;;18.80;99.90;;;;;;5070815;28;20318;-73
2022/07/09 13:01:44;;;;;;;;;;;18.80;99.90;;;;;;5071108;28;19923;-73
2022/07/09 13:04:10;;;;;;;;;;;18.80;99.90;;;;;;5070496;28;19913;-73
2022/07/09 13:06:35;;;;;;;;;;;18.90;99.90;;;;;;5071022;28;19921;-73
2022/07/09 13:09:02;;;;;;;;;;;18.90;99.90;;;;;;5070476;28;19909;-73
2022/07/09 13:11:28;;;;;;;;;;;18.90;99.90;;;;;;5070764;28;19998;-73
2022/07/09 13:13:54;;;;;;;;;;;18.90;99.90;;;;;;5052693;28;20002;-73
2022/07/09 13:16:19;;;;;;;;;;;18.90;99.90;;;;;;5070769;28;19920;-73
2022/07/09 13:18:45;;;;;;;;;;;18.90;99.90;;;;;;5070331;28;19936;-73
2022/07/09 13:21:10;;;;;;;;;;;18.90;99.90;;;;;;5070675;28;19916;-73
2022/07/09 13:23:36;;;;;;;;;;;18.90;99.90;;;;;;5052258;28;20353;-72
2022/07/09 13:26:02;;;;;;;;;;;18.90;99.90;;;;;;5070645;28;20003;-73
2022/07/09 13:28:27;;;;;;;;;;;19.00;99.90;;;;;;5070202;28;19912;-73
2022/07/09 13:30:53;;;;;;;;;;;19.00;99.90;;;;;;5052255;28;19920;-73
2022/07/09 13:33:19;;;;;;;;;;;19.00;99.90;;;;;;5070240;28;20038;-73
2022/07/09 13:35:44;;;;;;;;;;;19.00;99.90;;;;;;5052130;28;20376;-73
2022/07/09 13:38:10;;;;;;;;;;;19.00;99.90;;;;;;5052172;28;19916;-73
2022/07/09 13:40:35;;;;;;;;;;;19.00;99.90;;;;;;5070175;28;19936;-73
2022/07/09 13:43:01;;;;;;;;;;;19.00;99.90;;;;;;5070086;28;19946;-73
2022/07/09 13:45:28;;;;;;;;;;;19.00;99.90;;;;;;5070185;28;19920;-72
2022/07/09 13:47:53;;;;;;;;;;;19.00;99.90;;;;;;5070204;28;19912;-73
2022/07/09 13:50:19;;;;;;;;;;;19.00;99.90;;;;;;5070246;28;19923;-73
2022/07/09 13:52:44;;;;;;;;;;;19.00;99.90;;;;;;5074494;28;19917;-73
2022/07/09 13:55:10;;;;;;;;;;;19.00;99.90;;;;;;5056196;28;19920;-73
2022/07/09 13:57:35;;;;;;;;;;;19.10;99.90;;;;;;5074301;28;19919;-73
2022/07/09 14:00:01;;;;;;;;;;;19.10;99.90;;;;;;5074112;28;19925;-73
2022/07/09 14:02:27;;;;;;;;;;;19.00;99.90;;;;;;5074096;28;20022;-73
2022/07/09 14:04:54;;;;;;;;;;;19.10;99.90;;;;;;5073971;28;20008;-73
2022/07/09 14:07:19;;;;;;;;;;;19.10;99.90;;;;;;5056076;28;20280;-73
2022/07/09 14:09:45;;;;;;;;;;;19.00;99.90;;;;;;5073912;28;20286;-73
2022/07/09 14:12:10;;;;;;;;;;;19.00;99.90;;;;;;5073760;28;20572;-73